createdAt,value
2018-07-13T00:01:35.021Z,75.90
2018-07-13T00:04:59.780Z,75.80
2018-07-13T00:08:23.727Z,76.40
2018-07-13T00:11:47.643Z,76.80
2018-07-13T00:15:11.977Z,77.40
2018-07-13T00:18:35.878Z,77.90
2018-07-13T00:21:59.728Z,78.10
2018-07-13T00:25:23.603Z,78.40
2018-07-13T00:28:47.460Z,78.80
2018-07-13T00:32:11.291Z,79.10
2018-07-13T00:35:35.226Z,79.20
2018-07-13T00:38:59.184Z,78.90
2018-07-13T00:42:23.078Z,78.90
2018-07-13T00:45:46.942Z,78.80
2018-07-13T00:49:10.838Z,78.90
2018-07-13T00:52:34.764Z,79.20
2018-07-13T00:55:58.704Z,79.60
2018-07-13T00:59:22.633Z,79.60
2018-07-13T01:02:46.536Z,80.80
2018-07-13T01:06:10.415Z,80.00
2018-07-13T01:09:34.360Z,80.10
2018-07-13T01:12:58.242Z,79.80
2018-07-13T01:16:22.151Z,80.10
2018-07-13T01:23:09.627Z,81.60
2018-07-13T01:26:33.561Z,81.40
2018-07-13T01:29:58.250Z,81.40
2018-07-13T01:33:22.174Z,81.60
2018-07-13T01:36:46.070Z,81.70
2018-07-13T01:40:09.956Z,82.10
2018-07-13T01:43:33.829Z,82.30
2018-07-13T01:46:57.706Z,82.20
2018-07-13T01:50:21.602Z,82.80
2018-07-13T01:53:45.513Z,83.20
2018-07-13T01:57:09.393Z,82.90
2018-07-13T02:00:33.338Z,82.70
2018-07-13T02:03:58.207Z,82.60
2018-07-13T02:07:22.060Z,83.30
2018-07-13T02:10:45.921Z,83.50
2018-07-13T02:17:33.320Z,84.50
2018-07-13T02:20:57.982Z,83.90
2018-07-13T02:27:46.116Z,84.80
2018-07-13T02:31:10.015Z,84.80
2018-07-13T02:34:33.877Z,84.50
2018-07-13T02:37:58.516Z,84.90
2018-07-13T02:41:23.442Z,84.60
2018-07-13T02:44:48.144Z,84.50
2018-07-13T02:48:12.824Z,84.60
2018-07-13T02:51:37.424Z,84.60
2018-07-13T02:55:02.085Z,85.60
2018-07-13T03:01:51.080Z,85.70
2018-07-13T03:05:15.852Z,86.00
2018-07-13T03:08:40.479Z,86.10
2018-07-13T03:12:05.098Z,86.30
2018-07-13T03:15:29.762Z,86.30
2018-07-13T03:18:54.416Z,86.40
2018-07-13T03:22:19.112Z,86.90
2018-07-13T03:25:43.740Z,87.90
2018-07-13T03:29:08.608Z,88.10
2018-07-13T03:32:33.288Z,87.90
2018-07-13T03:35:57.899Z,88.20
2018-07-13T03:39:22.591Z,88.60
2018-07-13T03:42:47.185Z,88.90
2018-07-13T03:46:11.791Z,89.10
2018-07-13T03:49:36.453Z,89.70
2018-07-13T03:53:01.077Z,89.40
2018-07-13T03:56:25.708Z,90.10
2018-07-13T03:59:50.599Z,89.90
2018-07-13T04:03:15.225Z,90.20
2018-07-13T04:06:39.863Z,90.20
2018-07-13T04:10:04.679Z,90.00
2018-07-13T04:13:29.411Z,90.20
2018-07-13T04:16:54.122Z,90.10
2018-07-13T04:20:18.829Z,90.10
2018-07-13T04:23:43.556Z,90.00
2018-07-13T04:27:08.384Z,90.20
2018-07-13T04:30:33.139Z,90.20
2018-07-13T04:33:58.810Z,90.20
2018-07-13T04:37:23.553Z,90.30
2018-07-13T04:40:48.364Z,90.40
2018-07-13T04:44:13.104Z,90.40
2018-07-13T04:47:38.010Z,90.40
2018-07-13T04:51:02.768Z,90.20
2018-07-13T04:54:27.567Z,90.00
2018-07-13T04:57:52.588Z,89.80
2018-07-13T05:01:18.578Z,90.30
2018-07-13T05:04:43.564Z,90.00
2018-07-13T05:08:08.804Z,90.20
2018-07-13T05:11:33.528Z,89.80
2018-07-13T05:14:58.488Z,89.80
2018-07-13T05:18:23.220Z,90.20
2018-07-13T05:21:48.058Z,88.90
2018-07-13T05:25:12.841Z,89.00
2018-07-13T05:28:37.638Z,88.40
2018-07-13T05:32:02.404Z,88.30
2018-07-13T05:35:27.169Z,88.80
2018-07-13T05:38:52.421Z,87.40
2018-07-13T05:42:17.412Z,87.50
2018-07-13T05:45:42.145Z,87.10
2018-07-13T05:49:06.893Z,85.80
2018-07-13T05:52:31.601Z,86.40
2018-07-13T05:55:57.389Z,85.30
2018-07-13T06:02:46.479Z,85.00
2018-07-13T06:06:11.217Z,85.10
2018-07-13T06:09:35.983Z,84.60
2018-07-13T06:13:00.769Z,85.20
2018-07-13T06:16:25.432Z,85.60
2018-07-13T06:19:50.174Z,85.00
2018-07-13T06:23:15.056Z,85.20
2018-07-13T06:26:39.742Z,85.20
2018-07-13T06:30:05.182Z,84.50
2018-07-13T06:33:29.888Z,84.40
2018-07-13T06:40:19.130Z,83.40
2018-07-13T06:43:43.955Z,83.30
2018-07-13T06:50:33.101Z,82.70
2018-07-13T06:53:58.872Z,82.40
2018-07-13T07:01:08.789Z,80.20
2018-07-13T07:04:34.843Z,80.00
2018-07-13T07:07:59.597Z,79.10
2018-07-13T07:14:50.101Z,78.00
2018-07-13T07:18:14.834Z,77.60
2018-07-13T07:21:39.607Z,77.00
2018-07-13T07:25:04.409Z,76.00
2018-07-13T07:28:29.703Z,75.60
2018-07-13T07:31:54.497Z,75.30
2018-07-13T07:35:19.290Z,74.40
2018-07-13T07:38:45.030Z,73.00
2018-07-13T07:42:09.883Z,72.50
2018-07-13T07:45:34.708Z,72.60
2018-07-13T07:48:59.619Z,72.80
2018-07-13T07:52:24.519Z,71.70
2018-07-13T07:55:49.383Z,71.70
2018-07-13T07:59:14.193Z,70.80
2018-07-13T08:02:39.118Z,70.10
2018-07-13T08:06:04.035Z,70.60
2018-07-13T08:09:28.836Z,68.90
2018-07-13T08:12:53.649Z,67.80
2018-07-13T08:16:18.444Z,67.80
2018-07-13T08:19:43.231Z,66.90
2018-07-13T08:23:11.487Z,66.60
2018-07-13T08:26:36.324Z,66.30
2018-07-13T08:30:02.345Z,66.20
2018-07-13T08:33:27.082Z,66.20
2018-07-13T08:36:51.882Z,67.00
2018-07-13T08:40:16.774Z,65.30
2018-07-13T08:43:41.632Z,65.60
2018-07-13T08:47:07.547Z,64.40
2018-07-13T08:50:32.726Z,65.20
2018-07-13T08:53:57.679Z,64.70
2018-07-13T08:57:22.447Z,63.70
2018-07-13T09:00:47.484Z,63.20
2018-07-13T09:04:12.501Z,62.40
2018-07-13T09:07:37.889Z,62.50
2018-07-13T09:11:02.768Z,62.60
2018-07-13T09:14:27.575Z,62.10
2018-07-13T09:17:52.423Z,61.60
2018-07-13T09:21:17.323Z,60.30
2018-07-13T09:24:42.309Z,61.70
2018-07-13T09:28:07.450Z,60.60
2018-07-13T09:31:33.505Z,59.70
2018-07-13T09:34:58.285Z,59.50
2018-07-13T09:41:47.443Z,58.40
2018-07-13T09:45:13.199Z,58.00
2018-07-13T09:48:37.936Z,57.70
2018-07-13T09:52:03.341Z,57.00
2018-07-13T09:58:54.521Z,54.70
2018-07-13T10:02:19.209Z,53.80
2018-07-13T10:05:43.979Z,52.60
2018-07-13T10:09:08.811Z,52.20
2018-07-13T10:12:33.534Z,52.60
2018-07-13T10:19:24.135Z,51.20
2018-07-13T10:22:49.192Z,50.00
2018-07-13T10:26:22.429Z,50.20
2018-07-13T10:29:54.471Z,50.30
2018-07-13T10:33:21.001Z,49.60
2018-07-13T10:36:57.669Z,49.30
2018-07-13T10:43:47.130Z,47.70
2018-07-13T10:50:36.502Z,46.50
2018-07-13T10:54:01.406Z,46.00
2018-07-13T10:57:28.870Z,44.20
2018-07-13T11:00:53.619Z,43.40
2018-07-13T11:04:18.256Z,41.30
2018-07-13T11:07:44.093Z,40.60
2018-07-13T11:11:09.091Z,40.20
2018-07-13T11:14:33.833Z,39.60
2018-07-13T11:17:58.702Z,38.80
2018-07-13T11:21:23.395Z,38.60
2018-07-13T11:24:48.310Z,39.60
2018-07-13T11:28:13.192Z,40.70
2018-07-13T11:31:38.048Z,40.20
2018-07-13T11:35:02.962Z,39.60
2018-07-13T11:38:27.865Z,38.60
2018-07-13T11:41:52.725Z,38.60
2018-07-13T11:45:17.506Z,38.40
2018-07-13T11:48:43.326Z,39.40
2018-07-13T11:52:08.120Z,40.40
2018-07-13T11:58:57.178Z,40.30
2018-07-13T12:02:21.903Z,40.20
2018-07-13T12:05:46.756Z,39.10
2018-07-13T12:09:11.578Z,40.10
2018-07-13T12:12:36.361Z,39.60
2018-07-13T12:16:01.205Z,39.60
2018-07-13T12:19:25.934Z,39.00
2018-07-13T12:22:50.976Z,38.80
2018-07-13T12:29:40.263Z,39.30
2018-07-13T12:33:06.201Z,38.60
2018-07-13T12:36:30.961Z,39.20
2018-07-13T12:39:55.823Z,38.40
2018-07-13T12:43:20.813Z,37.70
2018-07-13T12:46:45.713Z,38.50
2018-07-13T12:50:10.573Z,38.20
2018-07-13T12:53:35.431Z,37.70
2018-07-13T12:57:00.289Z,38.00
2018-07-13T13:00:25.237Z,38.10
2018-07-13T13:10:39.340Z,35.30
2018-07-13T13:14:04.280Z,35.80
2018-07-13T13:24:17.641Z,36.30
2018-07-13T13:27:42.337Z,36.60
2018-07-13T13:31:07.138Z,35.60
2018-07-13T13:34:31.881Z,36.30
2018-07-13T13:37:56.690Z,35.70
2018-07-13T13:41:21.569Z,34.90
2018-07-13T13:44:46.996Z,35.30
2018-07-13T13:48:11.679Z,35.40
2018-07-13T13:51:36.404Z,36.30
2018-07-13T13:55:01.179Z,35.40
2018-07-13T13:58:25.866Z,35.00
2018-07-13T14:01:50.637Z,34.50
2018-07-13T14:05:15.403Z,35.20
2018-07-13T14:08:40.133Z,36.00
2018-07-13T14:12:05.235Z,36.00
2018-07-13T14:15:29.877Z,34.90
2018-07-13T14:18:54.686Z,35.70
2018-07-13T14:22:19.421Z,36.20
2018-07-13T14:25:44.413Z,36.10
2018-07-13T14:29:10.442Z,36.60
2018-07-13T14:32:35.345Z,36.10
2018-07-13T14:39:24.643Z,35.30
2018-07-13T14:42:49.973Z,36.00
2018-07-13T14:46:14.969Z,35.00
2018-07-13T14:49:39.714Z,35.20
2018-07-13T14:53:04.608Z,35.10
2018-07-13T14:56:29.615Z,35.10
2018-07-13T14:59:54.412Z,35.90
2018-07-13T15:03:20.445Z,36.00
2018-07-13T15:06:45.318Z,34.60
2018-07-13T15:10:10.736Z,34.00
2018-07-13T15:13:35.662Z,33.10
2018-07-13T15:17:00.479Z,32.30
2018-07-13T15:20:25.321Z,31.80
2018-07-13T15:23:50.139Z,31.40
2018-07-13T15:27:15.696Z,31.40
2018-07-13T15:30:40.543Z,30.30
2018-07-13T15:34:05.692Z,30.50
2018-07-13T15:37:30.457Z,31.30
2018-07-13T15:40:55.214Z,31.30
2018-07-13T15:47:44.378Z,32.50
2018-07-13T15:51:09.166Z,32.40
2018-07-13T15:54:33.865Z,31.40
2018-07-13T15:57:58.525Z,30.70
2018-07-13T16:01:24.379Z,29.70
2018-07-13T16:11:42.825Z,30.40
2018-07-13T16:15:07.772Z,32.30
2018-07-13T16:18:33.428Z,31.70
2018-07-13T16:25:22.634Z,30.30
2018-07-13T16:28:47.394Z,29.80
2018-07-13T16:32:12.238Z,30.80
2018-07-13T16:35:36.908Z,29.90
2018-07-13T16:39:01.766Z,30.10
2018-07-13T16:42:26.554Z,29.20
2018-07-13T16:45:51.328Z,29.00
2018-07-13T16:49:16.006Z,28.50
2018-07-13T16:52:44.295Z,28.70
2018-07-13T16:56:09.026Z,28.50
2018-07-13T16:59:34.661Z,29.00
2018-07-13T17:02:59.414Z,28.90
2018-07-13T17:09:50.455Z,29.30
2018-07-13T17:13:16.542Z,29.00
2018-07-13T17:16:41.305Z,30.10
2018-07-13T17:20:06.103Z,30.40
2018-07-13T17:26:55.268Z,30.80
2018-07-13T17:33:46.634Z,30.90
2018-07-13T17:37:11.478Z,30.30
2018-07-13T17:40:36.241Z,30.40
2018-07-13T17:44:01.055Z,30.70
2018-07-13T17:47:25.897Z,30.80
2018-07-13T17:57:39.543Z,33.10
2018-07-13T18:01:05.385Z,33.40
2018-07-13T18:04:30.055Z,33.80
2018-07-13T18:07:55.740Z,34.50
2018-07-13T18:11:20.563Z,34.70
2018-07-13T18:14:45.348Z,35.20
2018-07-13T18:18:10.116Z,35.80
2018-07-13T18:21:35.008Z,37.40
2018-07-13T18:24:59.969Z,37.90
2018-07-13T18:31:49.189Z,37.80
2018-07-13T18:35:13.921Z,37.70
2018-07-13T18:38:38.749Z,38.40
2018-07-13T18:42:03.235Z,39.20
2018-07-13T18:45:27.136Z,40.00
2018-07-13T18:48:51.029Z,41.20
2018-07-13T18:52:14.931Z,42.70
2018-07-13T18:55:38.943Z,42.10
2018-07-13T19:02:26.543Z,44.70
2018-07-13T19:09:14.164Z,45.80
2018-07-13T19:12:38.190Z,46.20
2018-07-13T19:16:02.179Z,46.90
2018-07-13T19:19:26.377Z,46.90
2018-07-13T19:22:50.563Z,48.20
2018-07-13T19:26:14.600Z,48.60
2018-07-13T19:29:39.641Z,48.20
2018-07-13T19:33:03.701Z,49.40
2018-07-13T19:36:27.703Z,49.60
2018-07-13T19:39:51.707Z,50.20
2018-07-13T19:43:15.626Z,50.50
2018-07-13T19:46:40.008Z,50.90
2018-07-13T19:50:04.828Z,51.20
2018-07-13T19:53:29.712Z,51.20
2018-07-13T19:56:55.729Z,51.50
2018-07-13T20:00:20.449Z,51.60
2018-07-13T20:03:45.194Z,52.80
2018-07-13T20:07:10.055Z,52.50
2018-07-13T20:10:35.170Z,53.50
2018-07-13T20:13:59.993Z,52.50
2018-07-13T20:24:14.290Z,53.30
2018-07-13T20:27:55.702Z,53.30
2018-07-13T20:31:21.654Z,53.40
2018-07-13T20:34:46.609Z,53.80
2018-07-13T20:41:36.268Z,54.60
2018-07-13T20:45:01.222Z,54.80
2018-07-13T20:48:26.070Z,55.60
2018-07-13T20:51:50.889Z,55.60
2018-07-13T20:55:15.857Z,55.90
2018-07-13T20:58:40.552Z,55.90
2018-07-13T21:02:09.574Z,56.50
2018-07-13T21:05:35.307Z,56.30
2018-07-13T21:12:24.521Z,57.10
2018-07-13T21:15:49.321Z,56.20
2018-07-13T21:19:14.217Z,56.90
2018-07-13T21:22:38.898Z,57.40
2018-07-13T21:29:28.100Z,58.30
2018-07-13T21:32:52.810Z,58.50
2018-07-13T21:36:17.563Z,59.60
2018-07-13T21:43:06.811Z,59.60
2018-07-13T21:46:31.470Z,59.60
2018-07-13T21:53:22.039Z,59.70
2018-07-13T21:56:47.243Z,59.60
2018-07-13T22:03:36.957Z,59.40
2018-07-13T22:07:02.026Z,59.50
2018-07-13T22:10:27.179Z,59.00
2018-07-13T22:17:17.296Z,59.80
2018-07-13T22:20:42.562Z,60.10
2018-07-13T22:24:08.132Z,60.40
2018-07-13T22:27:32.909Z,60.50
2018-07-13T22:30:57.609Z,61.50
2018-07-13T22:34:22.384Z,62.00
2018-07-13T22:41:11.476Z,63.30
2018-07-13T22:44:36.101Z,63.90
2018-07-13T22:48:00.894Z,63.90
2018-07-13T22:54:49.990Z,65.00
2018-07-13T22:58:14.680Z,65.60
2018-07-13T23:01:39.362Z,65.30
2018-07-13T23:05:04.164Z,65.50
2018-07-13T23:08:28.980Z,65.70
2018-07-13T23:11:53.732Z,66.30
2018-07-13T23:18:42.944Z,66.50
2018-07-13T23:22:07.627Z,66.20
2018-07-13T23:25:32.292Z,65.60
2018-07-13T23:28:56.986Z,65.20
2018-07-13T23:32:21.724Z,65.10
2018-07-13T23:35:46.356Z,65.90
2018-07-13T23:39:11.123Z,66.90
2018-07-13T23:42:35.857Z,66.30
2018-07-13T23:46:00.520Z,66.50
2018-07-13T23:49:25.325Z,66.90
2018-07-13T23:52:50.026Z,66.10
2018-07-13T23:56:14.756Z,65.90
2018-07-13T23:59:39.449Z,65.60
